Terminal Aerodrome Forecast
Issued by NWS

Home | Current Version | Previous Version | Graphics & Text | Print | Product List | Glossary On
Versions: 1 2 3 4 5 6 7 8 9 10 11 12 13 14 15 16 17 18 19
000
FTUS43 KICT 300745 AAA
TAFHUT
TAF AMD
KHUT 300745Z 3008/0106 03015G23KT 2SM -RA BR VCTS OVC008CB
     FM301200 36012KT 1 1/2SM -DZ BR OVC004
     FM301800 33015G24KT P6SM VCSH OVC012
     FM302200 31020G30KT P6SM VCSH OVC009=

USA.gov is the U.S. government's official web portal to all federal, state and local government web resources and services.